Time;durP1;ratioP1;P1;durP2;ratioP2;P2;SDS_P1;SDS_P2;PMS_P1;PMS_P2;Temp;Humidity;BMP_temperature;BMP_pressure;BME280_temperature;BME280_humidity;BME280_pressure;Samples;Min_cycle;Max_cycle;Signal;HPM_P1;HPM_P2
2021/03/05 00:01:36;;;;;;;14.57;2.83;;;;;;;3.00;70.79;102292.72;5266058;28;20029;-67
2021/03/05 00:04:08;;;;;;;12.20;2.80;;;;;;;2.99;68.85;102293.59;5266937;28;20363;-67
2021/03/05 00:06:39;;;;;;;10.90;2.88;;;;;;;2.97;69.13;102297.97;5268013;28;20028;-67
2021/03/05 00:09:11;;;;;;;13.00;3.58;;;;;;;2.96;71.27;102298.03;5265095;28;20693;-67
2021/03/05 00:11:42;;;;;;;14.60;2.40;;;;;;;2.95;70.74;102298.91;5270772;28;20062;-67
2021/03/05 00:14:13;;;;;;;15.00;2.75;;;;;;;2.95;70.61;102302.34;5265406;28;20025;-68
2021/03/05 00:16:44;;;;;;;15.80;3.15;;;;;;;2.97;70.95;102310.09;5264858;28;20028;-68
2021/03/05 00:19:16;;;;;;;14.15;3.80;;;;;;;2.98;70.77;102317.78;5268723;28;20025;-67
2021/03/05 00:21:47;;;;;;;13.73;3.60;;;;;;;2.95;72.15;102311.84;5269185;28;20064;-68
2021/03/05 00:24:18;;;;;;;11.60;3.38;;;;;;;2.94;72.52;102326.53;5266882;28;20044;-68
2021/03/05 00:26:50;;;;;;;12.00;2.72;;;;;;;2.96;74.41;102326.50;5268464;28;20067;-67
2021/03/05 00:29:21;;;;;;;11.77;2.75;;;;;;;2.89;72.87;102318.91;5248308;28;20059;-67
2021/03/05 00:31:53;;;;;;;15.93;3.42;;;;;;;2.88;73.04;102327.59;5267020;28;20437;-68
2021/03/05 00:34:24;;;;;;;15.77;3.03;;;;;;;2.91;72.24;102330.06;5265279;28;20029;-67
2021/03/05 00:36:55;;;;;;;16.42;2.92;;;;;;;2.88;72.91;102324.16;5266767;28;20028;-68
2021/03/05 00:39:27;;;;;;;13.25;3.38;;;;;;;2.88;71.99;102325.00;5265360;28;20029;-68
2021/03/05 00:41:59;;;;;;;11.82;2.83;;;;;;;2.88;73.93;102324.16;5264508;28;20548;-67
2021/03/05 00:44:30;;;;;;;14.85;2.95;;;;;;;2.88;73.51;102332.75;5265573;28;20041;-67
2021/03/05 00:47:02;;;;;;;14.70;2.97;;;;;;;2.87;74.18;102330.19;5266869;28;20028;-68
2021/03/05 00:49:33;;;;;;;19.17;3.10;;;;;;;2.89;73.19;102337.03;5262253;28;20032;-67
2021/03/05 00:52:05;;;;;;;12.40;3.63;;;;;;;2.90;73.43;102335.28;5266011;28;20082;-68
2021/03/05 00:54:36;;;;;;;11.88;2.92;;;;;;;2.89;74.00;102338.78;5267342;28;20028;-67
2021/03/05 00:57:07;;;;;;;19.95;3.72;;;;;;;2.90;73.66;102346.50;5266347;28;20024;-67
2021/03/05 00:59:39;;;;;;;13.38;3.42;;;;;;;2.81;74.74;102332.97;5265972;28;20036;-68
2021/03/05 01:02:10;;;;;;;24.85;3.40;;;;;;;2.90;74.83;102345.66;5266635;28;20423;-67
2021/03/05 01:04:41;;;;;;;16.58;3.13;;;;;;;2.89;74.16;102347.38;5248922;28;20032;-67
2021/03/05 01:07:12;;;;;;;15.18;4.05;;;;;;;2.91;73.94;102355.09;5265819;28;20308;-67
2021/03/05 01:09:44;;;;;;;11.43;2.70;;;;;;;2.88;74.49;102345.69;5265781;28;20017;-68
2021/03/05 01:12:15;;;;;;;12.15;3.50;;;;;;;2.90;74.75;102351.66;5266617;28;20031;-67
2021/03/05 01:14:47;;;;;;;13.35;3.92;;;;;;;2.89;75.59;102360.34;5268180;28;20033;-67
2021/03/05 01:17:18;;;;;;;14.80;4.78;;;;;;;2.89;75.91;102355.16;5266014;28;20082;-68
2021/03/05 01:19:50;;;;;;;14.05;4.68;;;;;;;2.85;76.02;102361.31;5266617;28;20116;-67
2021/03/05 01:22:21;;;;;;;14.30;5.53;;;;;;;2.87;77.08;102359.50;5265691;28;20098;-67
2021/03/05 01:24:52;;;;;;;17.27;5.45;;;;;;;2.87;76.00;102363.84;5266114;28;20032;-67
2021/03/05 01:27:23;;;;;;;15.23;5.22;;;;;;;2.86;76.43;102362.16;5267050;28;20111;-67
2021/03/05 01:29:55;;;;;;;14.98;5.47;;;;;;;2.88;76.56;102356.06;5268221;28;20052;-67
2021/03/05 01:32:26;;;;;;;13.55;4.95;;;;;;;2.87;78.00;102358.66;5265809;28;20502;-68
2021/03/05 01:34:58;;;;;;;16.27;5.75;;;;;;;2.89;77.25;102356.91;5265704;28;20372;-67
2021/03/05 01:37:29;;;;;;;13.77;5.55;;;;;;;2.84;77.51;102357.03;5266926;28;20478;-68
2021/03/05 01:40:02;;;;;;;21.02;7.28;;;;;;;2.89;78.18;102367.25;5264876;28;20035;-67
2021/03/05 01:42:33;;;;;;;13.82;6.15;;;;;;;2.91;77.53;102366.28;5266006;28;20116;-67
2021/03/05 01:45:13;;;;;;;14.20;6.30;;;;;;;2.91;77.90;102355.94;5265948;28;20038;-68
2021/03/05 01:47:47;;;;;;;20.58;6.97;;;;;;;2.97;77.25;102364.44;5269533;28;20516;-67
2021/03/05 01:50:24;;;;;;;15.00;6.80;;;;;;;2.94;78.16;102367.97;5266382;28;20025;-68
2021/03/05 01:53:04;;;;;;;14.68;7.07;;;;;;;2.93;77.37;102369.72;5264503;28;20506;-67
2021/03/05 01:55:35;;;;;;;13.88;8.13;;;;;;;2.89;78.01;102365.50;5262857;28;20032;-68
2021/03/05 01:58:07;;;;;;;13.20;7.68;;;;;;;2.89;78.43;102362.91;5263842;28;20379;-67
2021/03/05 02:01:08;;;;;;;16.33;8.75;;;;;;;2.96;78.01;102357.59;5265312;28;20028;-68
2021/03/05 02:03:39;;;;;;;15.68;8.45;;;;;;;2.90;78.46;102358.59;5267622;28;20027;-68
2021/03/05 02:06:11;;;;;;;13.98;8.60;;;;;;;2.88;78.35;102360.38;5263969;28;20028;-67
2021/03/05 02:08:42;;;;;;;14.68;9.60;;;;;;;2.86;79.02;102365.59;5266005;28;20021;-67
2021/03/05 02:11:21;;;;;;;20.08;10.18;;;;;;;2.87;79.12;102361.25;5264848;28;20135;-67
2021/03/05 02:13:55;;;;;;;14.15;9.43;;;;;;;2.84;79.63;102369.09;5265070;28;20032;-67
2021/03/05 02:16:55;;;;;;;13.75;9.80;;;;;;;2.78;79.29;102371.88;5263591;28;20033;-68
2021/03/05 02:20:00;;;;;;;17.20;10.00;;;;;;;2.77;78.79;102378.81;5263707;28;20131;-67
2021/03/05 02:22:52;;;;;;;16.88;10.63;;;;;;;2.71;79.26;102380.69;5266760;28;20436;-68
2021/03/05 02:26:19;;;;;;;18.45;10.20;;;;;;;2.70;79.32;102395.38;5264355;28;20029;-67
2021/03/05 02:29:28;;;;;;;18.35;10.93;;;;;;;2.69;79.54;102398.88;5218289;28;20513;-68
2021/03/05 02:32:20;;;;;;;19.33;11.07;;;;;;;2.65;80.56;102402.41;5255906;28;20099;-67
2021/03/05 02:34:52;;;;;;;18.08;11.35;;;;;;;2.62;79.85;102408.53;5263635;28;20122;-67
2021/03/05 02:37:28;;;;;;;18.10;10.77;;;;;;;2.58;79.78;102416.41;5264097;28;20074;-67
2021/03/05 02:39:59;;;;;;;16.17;11.15;;;;;;;2.58;79.13;102421.59;5265133;28;20022;-67
2021/03/05 02:42:46;;;;;;;18.07;11.67;;;;;;;2.63;79.53;102423.16;5264131;28;20048;-68
2021/03/05 02:45:21;;;;;;;15.35;10.43;;;;;;;2.60;78.57;102420.63;5264996;28;20278;-68
2021/03/05 02:47:57;;;;;;;15.60;11.00;;;;;;;2.55;78.57;102422.50;5265368;28;20494;-67
2021/03/05 02:50:31;;;;;;;17.95;11.80;;;;;;;2.51;78.76;102426.06;5264285;28;20045;-67
2021/03/05 02:53:06;;;;;;;15.55;10.63;;;;;;;2.47;79.04;102429.63;5265178;28;20052;-67
2021/03/05 02:55:40;;;;;;;16.00;11.32;;;;;;;2.47;78.92;102432.22;5265580;28;20410;-67
2021/03/05 02:58:13;;;;;;;17.00;11.32;;;;;;;2.42;78.75;102428.88;5264813;28;20261;-68
2021/03/05 03:00:45;;;;;;;14.45;11.50;;;;;;;2.43;79.01;102440.94;5260374;28;20047;-67
2021/03/05 03:03:19;;;;;;;16.23;11.07;;;;;;;2.39;79.34;102436.72;5264179;28;20033;-67
2021/03/05 03:05:52;;;;;;;17.73;10.73;;;;;;;2.30;79.45;102442.13;5264516;28;20115;-68
2021/03/05 03:08:23;;;;;;;16.73;11.73;;;;;;;2.24;79.00;102443.13;5263389;28;20428;-67
2021/03/05 03:10:55;;;;;;;15.88;10.80;;;;;;;2.13;78.70;102440.78;5265231;28;20086;-69
2021/03/05 03:13:26;;;;;;;14.48;10.40;;;;;;;2.07;79.14;102450.44;5258448;28;20040;-68
2021/03/05 03:15:59;;;;;;;17.98;11.40;;;;;;;2.02;79.12;102449.69;5264190;28;20029;-68
2021/03/05 03:18:49;;;;;;;16.52;11.00;;;;;;;1.94;79.39;102457.63;5263373;28;20601;-67
2021/03/05 03:21:21;;;;;;;15.15;9.93;;;;;;;1.88;78.81;102455.16;5255066;28;20496;-67
2021/03/05 03:23:54;;;;;;;16.77;10.93;;;;;;;1.76;79.74;102455.44;5265962;28;20498;-67
2021/03/05 03:26:26;;;;;;;19.13;11.02;;;;;;;1.69;79.86;102453.00;5269438;28;20032;-67
2021/03/05 03:28:58;;;;;;;14.13;10.95;;;;;;;1.68;79.84;102474.56;5265814;28;20032;-67
2021/03/05 03:31:29;;;;;;;14.07;10.68;;;;;;;1.55;79.98;102467.94;5268622;28;20029;-67
2021/03/05 03:34:01;;;;;;;16.45;11.38;;;;;;;1.53;80.49;102474.03;5267440;28;20474;-67
2021/03/05 03:36:38;;;;;;;18.77;11.00;;;;;;;1.54;80.76;102481.72;5267416;28;20036;-67
2021/03/05 03:39:10;;;;;;;14.45;10.25;;;;;;;1.43;80.27;102483.69;5269217;28;20021;-67
2021/03/05 03:41:41;;;;;;;16.40;10.95;;;;;;;1.36;80.21;102482.94;5267883;28;20056;-67
2021/03/05 03:44:13;;;;;;;15.48;11.30;;;;;;;1.38;80.75;102486.38;5267313;28;20078;-67
2021/03/05 03:46:50;;;;;;;17.55;11.68;;;;;;;1.30;80.62;102474.50;5267256;28;20500;-67
2021/03/05 03:49:33;;;;;;;13.90;10.52;;;;;;;1.30;80.15;102477.94;5267963;28;20029;-67
2021/03/05 03:52:14;;;;;;;16.38;10.75;;;;;;;1.25;80.73;102484.03;5267662;28;20083;-67
2021/03/05 03:54:46;;;;;;;15.43;10.85;;;;;;;1.17;80.76;102495.38;5267225;28;20078;-67
2021/03/05 03:57:21;;;;;;;14.18;10.52;;;;;;;1.11;80.54;102492.06;5266910;28;20493;-66
2021/03/05 03:59:54;;;;;;;13.82;10.98;;;;;;;1.17;82.02;102490.19;5268689;28;20098;-67
2021/03/05 04:02:28;;;;;;;17.98;11.32;;;;;;;1.04;81.12;102491.34;5270099;28;20029;-67
2021/03/05 04:05:02;;;;;;;14.93;10.60;;;;;;;1.05;82.04;102490.44;5267594;28;20033;-67
2021/03/05 04:07:34;;;;;;;16.52;11.25;;;;;;;1.03;82.38;102505.13;5269399;28;20432;-67
2021/03/05 04:10:06;;;;;;;16.00;10.73;;;;;;;0.97;81.56;102505.22;5266846;28;20033;-67
2021/03/05 04:12:38;;;;;;;17.38;10.98;;;;;;;0.98;80.88;102501.75;5267835;28;20107;-67
2021/03/05 04:15:11;;;;;;;17.35;11.40;;;;;;;0.97;82.16;102510.38;5265628;28;20119;-67
2021/03/05 04:17:42;;;;;;;15.82;11.10;;;;;;;0.92;81.51;102512.22;5265455;28;20032;-66
2021/03/05 04:20:16;;;;;;;18.77;11.88;;;;;;;0.88;81.69;102513.16;5269335;28;20098;-67
2021/03/05 04:22:48;;;;;;;15.52;11.27;;;;;;;0.84;82.22;102526.97;5266895;28;20568;-66
2021/03/05 04:25:20;;;;;;;19.88;11.65;;;;;;;0.83;82.51;102525.25;5266940;28;20033;-67
2021/03/05 04:27:51;;;;;;;18.48;11.75;;;;;;;0.80;82.41;102533.06;5265017;28;20090;-67
2021/03/05 04:30:23;;;;;;;17.30;11.65;;;;;;;0.75;82.28;102534.84;5265987;28;20049;-69
2021/03/05 04:32:54;;;;;;;15.93;11.65;;;;;;;0.81;83.90;102534.75;5264727;28;20037;-67
2021/03/05 04:35:26;;;;;;;21.55;11.93;;;;;;;0.76;82.51;102539.13;5268423;28;20382;-68
2021/03/05 04:37:57;;;;;;;19.67;11.60;;;;;;;0.76;83.04;102536.53;5267853;28;20029;-67
2021/03/05 04:40:28;;;;;;;19.35;11.60;;;;;;;0.66;82.69;102541.88;5266519;28;20031;-67
2021/03/05 04:43:00;;;;;;;18.98;11.48;;;;;;;0.62;83.01;102547.09;5269159;28;20162;-67
2021/03/05 04:45:31;;;;;;;18.58;11.27;;;;;;;0.55;83.04;102546.34;5266739;28;20020;-67
2021/03/05 04:48:02;;;;;;;23.45;11.60;;;;;;;0.54;83.09;102538.66;5266120;28;20043;-67
2021/03/05 04:50:34;;;;;;;18.00;11.43;;;;;;;0.52;82.91;102554.13;5265406;28;20183;-68
2021/03/05 04:53:05;;;;;;;15.45;11.18;;;;;;;0.55;83.25;102558.41;5266928;28;20032;-68
2021/03/05 04:55:37;;;;;;;22.05;10.90;;;;;;;0.40;82.87;102555.16;5263224;28;20032;-67
2021/03/05 04:58:09;;;;;;;15.70;10.65;;;;;;;0.46;82.00;102554.25;5265813;28;20059;-67
2021/03/05 05:00:40;;;;;;;21.23;10.95;;;;;;;0.37;82.03;102564.66;5257911;28;20115;-67
2021/03/05 05:03:11;;;;;;;21.58;12.05;;;;;;;0.32;82.65;102559.59;5265668;28;20082;-68
2021/03/05 05:05:42;;;;;;;15.60;10.02;;;;;;;0.28;82.48;102563.09;5263301;28;20121;-67
2021/03/05 05:08:14;;;;;;;19.65;11.82;;;;;;;0.23;82.71;102558.00;5264494;28;20066;-67
2021/03/05 05:10:45;;;;;;;19.83;11.85;;;;;;;0.24;82.24;102570.00;5264480;28;20024;-67
2021/03/05 05:13:17;;;;;;;17.65;10.85;;;;;;;0.17;81.61;102570.13;5265305;28;20521;-69
2021/03/05 05:15:48;;;;;;;14.70;9.55;;;;;;;0.17;82.14;102573.53;5264895;28;20024;-69
2021/03/05 05:18:20;;;;;;;17.05;11.05;;;;;;;0.20;82.81;102582.97;5263435;28;20078;-67
2021/03/05 05:20:51;;;;;;;17.30;10.43;;;;;;;0.12;82.62;102567.59;5265922;28;20098;-67
2021/03/05 05:23:22;;;;;;;19.08;10.80;;;;;;;0.09;81.06;102585.69;5262149;28;20100;-69
2021/03/05 05:25:54;;;;;;;18.48;10.57;;;;;;;0.14;82.09;102583.88;5265529;28;20028;-67
2021/03/05 05:28:25;;;;;;;18.92;10.77;;;;;;;0.03;81.78;102590.91;5266565;28;20402;-67
2021/03/05 05:30:56;;;;;;;14.73;9.40;;;;;;;0.04;81.53;102587.47;5265175;28;20454;-68
2021/03/05 05:33:27;;;;;;;18.38;9.05;;;;;;;0.04;81.78;102592.63;5266880;28;20112;-67
2021/03/05 05:36:00;;;;;;;16.95;10.05;;;;;;;0.03;81.72;102598.63;5266545;28;20106;-67
2021/03/05 05:38:31;;;;;;;13.85;10.05;;;;;;;-0.08;81.50;102603.91;5265929;28;20021;-67
2021/03/05 05:41:03;;;;;;;14.52;9.80;;;;;;;-0.08;81.82;102608.22;5266934;28;20525;-67
2021/03/05 05:43:35;;;;;;;17.10;9.75;;;;;;;-0.19;80.93;102598.06;5266846;28;20099;-67
2021/03/05 05:46:08;;;;;;;16.58;9.93;;;;;;;-0.12;81.92;102609.13;5267229;28;20115;-68
2021/03/05 05:48:39;;;;;;;13.82;9.20;;;;;;;-0.18;80.78;102612.66;5266915;28;20029;-68
2021/03/05 05:51:21;;;;;;;13.65;8.68;;;;;;;-0.19;81.25;102612.66;5264466;28;20059;-68
2021/03/05 05:53:56;;;;;;;16.63;10.02;;;;;;;-0.21;81.21;102622.97;5263983;28;20032;-67
2021/03/05 05:56:27;;;;;;;25.20;10.82;;;;;;;-0.33;80.77;102618.81;5266542;28;20070;-67
2021/03/05 05:58:59;;;;;;;17.05;9.35;;;;;;;-0.35;81.43;102630.00;5265223;28;20036;-67
2021/03/05 06:01:33;;;;;;;15.23;9.75;;;;;;;-0.35;81.89;102636.00;5268501;28;20484;-67
2021/03/05 06:04:05;;;;;;;15.15;9.43;;;;;;;-0.40;81.65;102640.34;5262899;28;20486;-67
2021/03/05 06:06:37;;;;;;;16.45;9.63;;;;;;;-0.35;82.35;102633.41;5266042;28;20067;-67
2021/03/05 06:09:09;;;;;;;22.15;10.57;;;;;;;-0.49;81.67;102612.13;5266265;28;20025;-67
2021/03/05 06:11:41;;;;;;;15.15;9.52;;;;;;;-0.37;82.31;102648.06;5263057;28;20032;-67
2021/03/05 06:14:13;;;;;;;17.55;9.63;;;;;;;-0.46;80.51;102652.44;5262915;28;20391;-67
2021/03/05 06:16:56;;;;;;;16.83;9.73;;;;;;;-0.45;80.98;102655.00;5266331;28;20525;-67
2021/03/05 06:19:29;;;;;;;15.82;9.77;;;;;;;-0.52;80.96;102654.19;5263945;28;20028;-67
2021/03/05 06:22:01;;;;;;;13.90;8.88;;;;;;;-0.57;81.00;102653.41;5263051;28;20021;-67
2021/03/05 06:24:43;;;;;;;16.48;9.27;;;;;;;-0.57;81.21;102655.09;5265739;28;20085;-68
2021/03/05 06:27:16;;;;;;;16.63;9.50;;;;;;;-0.59;81.30;102662.00;5263874;28;20040;-68
2021/03/05 06:29:49;;;;;;;14.57;8.43;;;;;;;-0.55;81.96;102668.81;5266492;28;20044;-67
2021/03/05 06:32:21;;;;;;;13.52;8.27;;;;;;;-0.58;80.23;102676.56;5261040;28;20036;-67
2021/03/05 06:34:53;;;;;;;13.50;8.30;;;;;;;-0.58;81.04;102681.72;5263249;28;20029;-67
2021/03/05 06:37:26;;;;;;;14.88;8.43;;;;;;;-0.64;80.44;102679.22;5262447;28;20024;-67
2021/03/05 06:40:08;;;;;;;12.10;7.88;;;;;;;-0.61;79.72;102684.31;5265994;28;20028;-68
2021/03/05 06:42:50;;;;;;;16.85;8.38;;;;;;;-0.63;79.79;102693.78;5263228;28;20078;-67
2021/03/05 06:45:34;;;;;;;12.25;7.65;;;;;;;-0.61;80.66;102684.31;5263818;28;20090;-67
2021/03/05 06:48:07;;;;;;;14.70;8.45;;;;;;;-0.65;79.98;102691.19;5259543;28;20090;-67
2021/03/05 06:50:42;;;;;;;12.95;8.50;;;;;;;-0.64;79.37;102687.78;5264462;28;20067;-67
2021/03/05 06:53:25;;;;;;;17.05;8.80;;;;;;;-0.58;80.92;102692.88;5262682;28;20096;-67
2021/03/05 06:55:56;;;;;;;14.98;8.13;;;;;;;-0.66;80.25;102699.81;5264446;28;20051;-68
2021/03/05 06:58:28;;;;;;;13.00;7.60;;;;;;;-0.62;81.42;102711.78;5267594;28;20028;-68
2021/03/05 07:01:03;;;;;;;14.88;8.35;;;;;;;-0.66;81.05;102707.53;5267422;28;20028;-67
2021/03/05 07:03:34;;;;;;;15.75;8.20;;;;;;;-0.55;81.58;102721.16;5269275;28;20037;-68
2021/03/05 07:06:06;;;;;;;12.75;7.32;;;;;;;-0.58;80.19;102723.75;5267908;28;20105;-68
2021/03/05 07:08:44;;;;;;;13.27;7.45;;;;;;;-0.56;80.16;102729.75;5263584;28;20036;-67
2021/03/05 07:11:36;;;;;;;14.00;7.90;;;;;;;-0.52;80.28;102735.75;5265180;28;20505;-68
2021/03/05 07:14:10;;;;;;;14.23;7.65;;;;;;;-0.52;80.29;102740.88;5268238;28;20021;-68
2021/03/05 07:16:43;;;;;;;17.23;7.75;;;;;;;-0.53;80.42;102744.31;5265635;28;20537;-68
2021/03/05 07:19:17;;;;;;;14.55;7.60;;;;;;;-0.47;80.02;102746.84;5269483;28;20474;-68
2021/03/05 07:21:49;;;;;;;;;;;;;;;-0.35;79.19;102759.59;5270108;28;20040;-67
2021/03/05 07:24:22;;;;;;;13.60;7.57;;;;;;;-0.43;78.78;102756.25;5264973;28;19912;-67
2021/03/05 07:26:57;;;;;;;11.68;6.80;;;;;;;-0.39;78.97;102762.22;5264794;28;20044;-67
2021/03/05 07:29:43;;;;;;;14.05;7.50;;;;;;;-0.36;79.89;102767.34;5267850;28;20047;-67
2021/03/05 07:32:20;;;;;;;13.10;6.85;;;;;;;-0.34;77.74;102766.50;5266734;28;20470;-68
2021/03/05 07:34:59;;;;;;;11.02;7.25;;;;;;;-0.30;78.45;102773.31;5265563;28;20032;-67
2021/03/05 07:37:45;;;;;;;12.57;7.35;;;;;;;-0.27;78.36;102783.56;5266535;28;20079;-68
2021/03/05 07:40:17;;;;;;;15.05;7.20;;;;;;;-0.26;78.24;102782.72;5267091;28;20035;-68
2021/03/05 07:42:49;;;;;;;12.18;6.35;;;;;;;-0.28;76.42;102781.88;5268942;28;20024;-68
2021/03/05 07:45:21;;;;;;;11.48;6.18;;;;;;;-0.17;76.70;102797.25;5265726;28;20047;-68
2021/03/05 07:47:55;;;;;;;12.63;6.18;;;;;;;-0.12;77.38;102799.75;5266148;28;20083;-68
2021/03/05 07:50:27;;;;;;;8.85;5.65;;;;;;;-0.13;76.73;102790.34;5268761;28;20113;-68
2021/03/05 07:52:59;;;;;;;13.65;6.05;;;;;;;-0.06;76.36;102797.16;5264769;28;20075;-67
2021/03/05 07:55:41;;;;;;;11.55;6.07;;;;;;;0.06;76.10;102809.06;5264843;28;20064;-67
2021/03/05 07:58:44;;;;;;;12.15;5.38;;;;;;;0.11;74.58;102790.09;5266105;28;20032;-67
2021/03/05 08:01:16;;;;;;;8.98;4.90;;;;;;;0.11;73.33;102795.25;5263026;28;20074;-67
2021/03/05 08:03:55;;;;;;;10.60;5.10;;;;;;;0.16;74.59;102801.22;5265238;28;20028;-67
2021/03/05 08:06:29;;;;;;;8.65;4.97;;;;;;;0.22;72.92;102797.72;5267945;28;20422;-67
2021/03/05 08:09:15;;;;;;;7.22;4.28;;;;;;;0.27;72.32;102806.28;5263896;28;20086;-67
2021/03/05 08:11:47;;;;;;;17.30;4.88;;;;;;;0.28;72.28;102807.97;5258893;28;21494;-67
2021/03/05 08:14:18;;;;;;;8.35;4.03;;;;;;;0.38;69.28;102813.88;5257019;28;20065;-68
2021/03/05 08:16:50;;;;;;;9.63;4.18;;;;;;;0.43;70.19;102815.56;5253376;28;20388;-68
2021/03/05 08:19:21;;;;;;;8.65;4.32;;;;;;;0.48;70.46;102818.91;5251084;28;20041;-68
2021/03/05 08:21:57;;;;;;;8.77;4.27;;;;;;;0.58;70.04;102826.56;5260511;28;20031;-68
2021/03/05 08:24:30;;;;;;;9.15;3.97;;;;;;;0.58;72.40;102822.28;5258463;28;20554;-69
2021/03/05 08:27:10;;;;;;;9.35;3.58;;;;;;;0.71;68.17;102828.97;5259168;28;20028;-68
2021/03/05 08:30:04;;;;;;;7.40;3.65;;;;;;;0.76;70.44;102834.09;5254174;28;20048;-67
2021/03/05 08:32:37;;;;;;;7.47;3.45;;;;;;;0.81;69.52;102841.78;5256924;28;20518;-68
2021/03/05 08:35:13;;;;;;;7.05;3.35;;;;;;;0.87;68.55;102842.56;5257951;28;20124;-67
2021/03/05 08:37:46;;;;;;;7.18;3.20;;;;;;;0.92;67.63;102837.34;5251268;28;20029;-68
2021/03/05 08:40:18;;;;;;;8.48;3.53;;;;;;;0.99;67.66;102843.28;5259050;28;20028;-68
2021/03/05 08:42:53;;;;;;;10.15;3.45;;;;;;;1.00;68.27;102848.44;5257370;28;20043;-68
2021/03/05 08:45:30;;;;;;;9.98;3.10;;;;;;;1.06;69.07;102844.91;5239601;28;20031;-68
2021/03/05 08:48:03;;;;;;;5.85;2.95;;;;;;;1.15;68.60;102845.66;5256919;28;20033;-68
2021/03/05 08:50:37;;;;;;;6.97;3.00;;;;;;;1.19;67.49;102846.47;5257267;28;20037;-69
2021/03/05 08:53:12;;;;;;;7.00;3.22;;;;;;;1.18;67.44;102847.34;5253069;28;20028;-70
2021/03/05 08:55:47;;;;;;;5.78;3.08;;;;;;;1.23;67.40;102847.28;5253439;28;20032;-69
2021/03/05 08:58:18;;;;;;;8.77;3.10;;;;;;;1.31;67.09;102850.59;5255047;28;20049;-68
2021/03/05 09:00:49;;;;;;;5.90;2.90;;;;;;;1.38;67.43;102852.22;5259006;28;20029;-69
2021/03/05 09:03:21;;;;;;;9.70;3.08;;;;;;;1.45;66.66;102841.78;5256544;28;20040;-68
2021/03/05 09:05:52;;;;;;;9.48;3.20;;;;;;;1.51;66.63;102848.56;5259207;28;20741;-68
2021/03/05 09:08:25;;;;;;;7.72;3.05;;;;;;;1.56;66.60;102851.09;5254920;28;20470;-69
2021/03/05 09:11:00;;;;;;;8.82;2.92;;;;;;;1.66;67.26;102858.66;5259200;28;20025;-68
2021/03/05 09:13:36;;;;;;;7.07;3.05;;;;;;;1.79;65.51;102863.69;5236128;28;20446;-69
2021/03/05 09:16:07;;;;;;;9.77;3.53;;;;;;;1.82;66.59;102867.06;5259541;28;20043;-68
2021/03/05 09:18:39;;;;;;;8.07;2.70;;;;;;;1.90;65.40;102870.38;5254655;28;20347;-70
2021/03/05 09:21:10;;;;;;;6.43;3.33;;;;;;;1.92;67.12;102866.03;5252564;28;20496;-68
2021/03/05 09:23:43;;;;;;;7.45;2.83;;;;;;;2.07;65.65;102875.25;5254324;28;20558;-67
2021/03/05 09:26:16;;;;;;;7.45;3.03;;;;;;;2.09;65.93;102870.94;5258323;28;20037;-67
2021/03/05 09:28:50;;;;;;;8.85;3.53;;;;;;;2.16;65.39;102880.28;5254007;28;20033;-67
2021/03/05 09:31:25;;;;;;;;;;;;;;;2.29;67.02;102877.50;5254829;28;20041;-67
2021/03/05 09:34:00;;;;;;;7.45;3.05;;;;;;;2.29;63.63;102869.72;5258797;28;20279;-68
2021/03/05 09:36:34;;;;;;;8.18;2.60;;;;;;;2.32;64.68;102864.50;5253327;28;20111;-68
2021/03/05 09:39:07;;;;;;;5.55;2.78;;;;;;;2.40;63.36;102870.38;5258691;28;20047;-69
2021/03/05 09:41:47;;;;;;;5.95;2.70;;;;;;;2.44;62.52;102879.81;5254843;28;20028;-68
2021/03/05 09:44:18;;;;;;;8.02;2.88;;;;;;;2.47;62.85;102869.41;5253789;28;20112;-69
2021/03/05 09:46:55;;;;;;;5.18;2.50;;;;;;;2.61;62.45;102877.78;5255215;28;20031;-68
2021/03/05 09:49:29;;;;;;;6.70;2.63;;;;;;;2.70;61.40;102881.91;5254679;28;20033;-68
2021/03/05 09:52:01;;;;;;;8.98;2.65;;;;;;;2.72;62.45;102885.31;5251707;28;20032;-68
2021/03/05 09:54:36;;;;;;;7.93;2.55;;;;;;;2.80;61.87;102885.16;5254748;28;20079;-69
2021/03/05 09:57:11;;;;;;;5.53;2.50;;;;;;;2.86;61.87;102888.47;5253176;28;20038;-69
2021/03/05 09:59:45;;;;;;;5.13;2.30;;;;;;;2.97;61.57;102893.44;5252027;28;20049;-68
2021/03/05 10:02:17;;;;;;;;;;;;;;;3.13;60.56;102884.47;5257137;28;20028;-69
2021/03/05 10:04:50;;;;;;;8.18;1.80;;;;;;;3.15;58.64;102895.66;5238469;28;19920;-69
2021/03/05 10:07:21;;;;;;;4.93;1.90;;;;;;;3.30;57.77;102889.31;5255588;28;20108;-69
2021/03/05 10:10:06;;;;;;;3.60;1.77;;;;;;;3.39;58.27;102888.25;5258089;28;20013;-68
2021/03/05 10:12:38;;;;;;;6.88;2.17;;;;;;;3.37;57.39;102890.00;5259394;28;20036;-68
2021/03/05 10:15:09;;;;;;;5.25;1.80;;;;;;;3.51;56.21;102894.91;5239466;28;20342;-67
2021/03/05 10:17:41;;;;;;;10.00;2.15;;;;;;;3.46;56.35;102895.00;5253958;28;20020;-70
2021/03/05 10:20:13;;;;;;;4.10;1.95;;;;;;;3.43;56.05;102892.47;5254095;28;20662;-67
2021/03/05 10:22:50;;;;;;;5.30;2.17;;;;;;;3.53;54.92;102888.81;5236015;28;20386;-68
2021/03/05 10:25:21;;;;;;;6.60;1.85;;;;;;;3.65;53.29;102891.13;5256654;28;20150;-70
2021/03/05 10:27:53;;;;;;;5.80;1.90;;;;;;;3.63;53.99;102892.03;5252841;28;20062;-68
2021/03/05 10:30:24;;;;;;;5.00;1.98;;;;;;;3.72;52.10;102888.41;5254058;28;20045;-68
2021/03/05 10:32:56;;;;;;;6.63;2.38;;;;;;;3.81;52.65;102896.78;5255947;28;20498;-68
2021/03/05 10:35:28;;;;;;;6.95;1.83;;;;;;;3.95;52.57;102899.06;5254277;28;20434;-69
2021/03/05 10:37:59;;;;;;;4.83;1.63;;;;;;;4.01;51.60;102887.69;5257535;28;20432;-69
2021/03/05 10:40:31;;;;;;;3.72;1.63;;;;;;;4.06;50.63;102891.88;5236752;28;20300;-69
2021/03/05 10:43:06;;;;;;;8.40;2.22;;;;;;;4.17;52.18;102895.91;5250147;28;20029;-69
2021/03/05 10:45:37;;;;;;;3.90;1.58;;;;;;;4.29;49.79;102893.88;5257542;28;20551;-68
2021/03/05 10:48:09;;;;;;;4.03;1.63;;;;;;;4.26;51.28;102896.56;5254320;28;20053;-70
2021/03/05 10:50:41;;;;;;;6.22;2.17;;;;;;;4.38;49.22;102905.78;5256015;28;20017;-69
2021/03/05 10:53:12;;;;;;;5.57;1.30;;;;;;;4.45;48.33;102898.69;5254456;28;20039;-68
2021/03/05 10:55:44;;;;;;;2.58;1.35;;;;;;;4.51;45.78;102898.50;5253089;28;20541;-69
2021/03/05 10:58:16;;;;;;;3.75;1.60;;;;;;;4.59;47.59;102910.41;5250837;28;20051;-69
2021/03/05 11:00:47;;;;;;;5.43;1.77;;;;;;;4.72;46.75;102899.69;5252947;28;20115;-69
2021/03/05 11:03:19;;;;;;;3.10;1.30;;;;;;;4.84;46.67;102907.13;5239665;28;20051;-69
2021/03/05 11:05:50;;;;;;;2.85;1.23;;;;;;;4.91;43.69;102910.41;5258015;28;20405;-69
2021/03/05 11:08:21;;;;;;;5.32;1.20;;;;;;;4.93;44.62;102904.28;5256114;28;20025;-69
2021/03/05 11:10:53;;;;;;;3.40;1.20;;;;;;;5.03;42.21;102907.47;5254319;28;20029;-70
2021/03/05 11:13:24;;;;;;;6.13;1.52;;;;;;;5.04;42.97;102912.63;5253935;28;20450;-70
2021/03/05 11:15:55;;;;;;;5.38;1.20;;;;;;;5.12;42.04;102923.66;5256068;28;20094;-69
2021/03/05 11:18:26;;;;;;;4.88;1.48;;;;;;;5.14;43.99;102918.41;5252878;28;20028;-69
2021/03/05 11:20:58;;;;;;;6.38;1.50;;;;;;;5.18;44.16;102930.41;5253184;28;20082;-69
2021/03/05 11:23:29;;;;;;;3.33;1.17;;;;;;;5.25;40.46;102925.91;5256172;28;20035;-69
2021/03/05 11:26:00;;;;;;;6.85;1.63;;;;;;;5.29;41.26;102924.91;5257546;28;20044;-69
2021/03/05 11:28:32;;;;;;;4.93;1.52;;;;;;;5.36;40.64;102924.69;5255589;28;20021;-69
2021/03/05 11:31:03;;;;;;;4.35;1.00;;;;;;;5.39;40.43;102922.91;5253433;28;20057;-69
2021/03/05 11:33:34;;;;;;;4.15;1.23;;;;;;;5.31;42.82;102917.94;5252510;28;20147;-69
2021/03/05 11:36:06;;;;;;;4.75;1.58;;;;;;;5.45;41.98;102923.56;5253402;28;20017;-69
2021/03/05 11:38:40;;;;;;;3.65;1.10;;;;;;;5.52;41.25;102922.47;5253442;28;20041;-68
2021/03/05 11:41:12;;;;;;;4.45;1.50;;;;;;;5.48;42.99;102917.41;5249954;28;20460;-69
2021/03/05 11:43:49;;;;;;;3.05;1.10;;;;;;;5.46;41.97;102924.44;5251358;28;20041;-69
2021/03/05 11:46:22;;;;;;;3.08;1.00;;;;;;;5.43;42.27;102924.50;5257478;28;20417;-68
2021/03/05 11:48:53;;;;;;;3.05;0.90;;;;;;;5.57;41.08;102928.41;5259184;28;20443;-69
2021/03/05 11:51:24;;;;;;;3.53;1.30;;;;;;;5.58;37.87;102924.91;5258303;28;20037;-69
2021/03/05 11:53:56;;;;;;;3.47;1.15;;;;;;;5.63;38.79;102921.31;5260714;28;20036;-69
2021/03/05 11:56:27;;;;;;;4.55;1.00;;;;;;;5.57;39.43;102924.97;5252069;28;20039;-69